createdAt,value
2023-04-12T00:01:11.588Z,21.84
2023-04-12T00:03:44.603Z,21.83
2023-04-12T00:06:20.349Z,21.83
2023-04-12T00:08:53.466Z,21.83
2023-04-12T00:11:26.649Z,21.83
2023-04-12T00:13:59.551Z,21.83
2023-04-12T00:16:32.752Z,21.82
2023-04-12T00:19:05.278Z,21.82
2023-04-12T00:21:38.315Z,21.82
2023-04-12T00:24:11.411Z,21.82
2023-04-12T00:26:44.612Z,21.82
2023-04-12T00:29:17.640Z,21.82
2023-04-12T00:31:50.399Z,21.82
2023-04-12T00:34:23.624Z,21.81
2023-04-12T00:36:56.718Z,21.81
2023-04-12T00:39:29.685Z,21.81
2023-04-12T00:42:02.691Z,21.81
2023-04-12T00:44:35.547Z,21.81
2023-04-12T00:47:08.533Z,21.81
2023-04-12T00:49:41.831Z,21.80
2023-04-12T00:52:15.774Z,21.80
2023-04-12T00:54:48.441Z,21.80
2023-04-12T00:57:21.616Z,21.79
2023-04-12T00:59:54.641Z,21.79
2023-04-12T01:02:27.882Z,21.79
2023-04-12T01:05:01.684Z,21.79
2023-04-12T01:07:34.677Z,21.79
2023-04-12T01:10:07.662Z,21.79
2023-04-12T01:12:40.337Z,21.78
2023-04-12T01:15:13.486Z,21.78
2023-04-12T01:17:46.719Z,21.78
2023-04-12T01:20:19.765Z,21.78
2023-04-12T01:22:52.456Z,21.77
2023-04-12T01:25:25.929Z,21.77
2023-04-12T01:27:59.720Z,21.77
2023-04-12T01:30:32.726Z,21.76
2023-04-12T01:33:05.687Z,21.76
2023-04-12T01:35:38.466Z,21.76
2023-04-12T01:38:11.694Z,21.76
2023-04-12T01:40:44.581Z,21.75
2023-04-12T01:43:17.842Z,21.75
2023-04-12T01:45:51.821Z,21.75
2023-04-12T01:48:24.565Z,21.75
2023-04-12T01:50:57.824Z,21.74
2023-04-12T01:53:30.772Z,21.74
2023-04-12T01:56:03.520Z,21.74
2023-04-12T01:58:36.708Z,21.74
2023-04-12T02:01:09.725Z,21.73
2023-04-12T02:03:42.884Z,21.73
2023-04-12T02:06:15.655Z,21.73
2023-04-12T02:08:52.635Z,21.72
2023-04-12T02:11:25.965Z,21.72
2023-04-12T02:13:59.986Z,21.71
2023-04-12T02:16:32.762Z,21.71
2023-04-12T02:19:05.765Z,21.70
2023-04-12T02:21:38.728Z,21.70
2023-04-12T02:24:11.809Z,21.70
2023-04-12T02:26:44.745Z,21.70
2023-04-12T02:29:17.864Z,21.69
2023-04-12T02:31:50.990Z,21.69
2023-04-12T02:34:24.771Z,21.68
2023-04-12T02:37:01.724Z,21.68
2023-04-12T02:39:34.868Z,21.67
2023-04-12T02:42:07.768Z,21.67
2023-04-12T02:44:40.789Z,21.66
2023-04-12T02:47:13.686Z,21.66
2023-04-12T02:49:46.766Z,21.66
2023-04-12T02:52:19.668Z,21.65
2023-04-12T02:54:52.859Z,21.65
2023-04-12T02:57:25.825Z,21.64
2023-04-12T02:59:59.011Z,21.63
2023-04-12T03:02:33.076Z,21.63
2023-04-12T03:05:05.893Z,21.62
2023-04-12T03:07:38.695Z,21.62
2023-04-12T03:10:11.807Z,21.61
2023-04-12T03:12:44.794Z,21.61
2023-04-12T03:15:17.627Z,21.60
2023-04-12T03:17:50.716Z,21.60
2023-04-12T03:20:24.056Z,21.59
2023-04-12T03:22:58.055Z,21.58
2023-04-12T03:25:45.476Z,21.58
2023-04-12T03:28:18.637Z,21.57
2023-04-12T03:30:51.923Z,21.57
2023-04-12T03:33:24.840Z,21.56
2023-04-12T03:35:57.990Z,21.56
2023-04-12T03:38:31.084Z,21.56
2023-04-12T03:41:04.587Z,21.55
2023-04-12T03:43:37.744Z,21.55
2023-04-12T03:46:16.892Z,21.54
2023-04-12T03:48:53.685Z,21.54
2023-04-12T03:51:26.728Z,21.53
2023-04-12T03:54:00.073Z,21.53
2023-04-12T03:56:33.142Z,21.53
2023-04-12T03:59:06.945Z,21.52
2023-04-12T04:01:39.759Z,21.52
2023-04-12T04:04:13.187Z,21.52
2023-04-12T04:06:46.882Z,21.51
2023-04-12T04:09:19.795Z,21.51
2023-04-12T04:11:52.959Z,21.51
2023-04-12T04:14:25.946Z,21.51
2023-04-12T04:16:59.355Z,21.50
2023-04-12T04:19:32.985Z,21.50
2023-04-12T04:22:05.648Z,21.49
2023-04-12T04:24:39.173Z,21.49
2023-04-12T04:27:12.063Z,21.49
2023-04-12T04:29:44.930Z,21.48
2023-04-12T04:32:17.632Z,21.48
2023-04-12T04:34:50.874Z,21.47
2023-04-12T04:37:23.952Z,21.47
2023-04-12T04:39:56.997Z,21.46
2023-04-12T04:42:30.183Z,21.46
2023-04-12T04:45:03.933Z,21.46
2023-04-12T04:47:37.376Z,21.45
2023-04-12T04:50:11.170Z,21.45
2023-04-12T04:52:44.933Z,21.45
2023-04-12T04:55:17.913Z,21.44
2023-04-12T04:57:50.966Z,21.44
2023-04-12T05:00:23.880Z,21.44
2023-04-12T05:02:57.154Z,21.43
2023-04-12T05:05:29.907Z,21.43
2023-04-12T05:08:03.067Z,21.43
2023-04-12T05:10:36.183Z,21.42
2023-04-12T05:13:10.095Z,21.42
2023-04-12T05:15:42.881Z,21.42
2023-04-12T05:18:15.861Z,21.42
2023-04-12T05:20:49.008Z,21.41
2023-04-12T05:23:22.088Z,21.41
2023-04-12T05:25:54.959Z,21.40
2023-04-12T05:28:27.987Z,21.40
2023-04-12T05:31:00.865Z,21.40
2023-04-12T05:33:34.083Z,21.39
2023-04-12T05:36:20.653Z,21.39
2023-04-12T05:38:54.018Z,21.38
2023-04-12T05:41:27.365Z,21.38
2023-04-12T05:44:00.953Z,21.38
2023-04-12T05:46:34.012Z,21.37
2023-04-12T05:49:20.854Z,21.37
2023-04-12T05:51:54.032Z,21.37
2023-04-12T05:54:26.910Z,21.37
2023-04-12T05:56:59.939Z,21.36
2023-04-12T05:59:32.964Z,21.36
2023-04-12T06:02:05.793Z,21.36
2023-04-12T06:04:50.325Z,21.35
2023-04-12T06:07:11.800Z,21.35
2023-04-12T06:09:44.961Z,21.34
2023-04-12T06:12:17.940Z,21.34
2023-04-12T06:14:50.884Z,21.34
2023-04-12T06:17:24.181Z,21.33
2023-04-12T06:19:57.098Z,21.33
2023-04-12T06:22:29.844Z,21.33
2023-04-12T06:25:02.818Z,21.33
2023-04-12T06:27:42.067Z,21.32
2023-04-12T06:30:14.842Z,21.32
2023-04-12T06:32:48.063Z,21.32
2023-04-12T06:35:21.066Z,21.31
2023-04-12T06:37:54.129Z,21.31
2023-04-12T06:40:27.421Z,21.30
2023-04-12T06:43:00.956Z,21.30
2023-04-12T06:45:33.888Z,21.30
2023-04-12T06:48:06.884Z,21.30
2023-04-12T06:50:40.022Z,21.29
2023-04-12T06:53:13.117Z,21.29
2023-04-12T06:55:46.056Z,21.29
2023-04-12T06:58:19.206Z,21.28
2023-04-12T07:00:51.916Z,21.28
2023-04-12T07:03:25.139Z,21.28
2023-04-12T07:06:02.139Z,21.28
2023-04-12T07:08:32.960Z,21.27
2023-04-12T07:11:19.765Z,21.27
2023-04-12T07:13:39.024Z,21.27
2023-04-12T07:16:12.315Z,21.27
2023-04-12T07:18:44.999Z,21.26
2023-04-12T07:21:18.234Z,21.26
2023-04-12T07:23:50.906Z,21.26
2023-04-12T07:26:24.002Z,21.26
2023-04-12T07:28:57.211Z,21.26
2023-04-12T07:31:30.247Z,21.26
2023-04-12T07:34:03.070Z,21.26
2023-04-12T07:36:36.007Z,21.26
2023-04-12T07:39:09.189Z,21.26
2023-04-12T07:41:42.266Z,21.26
2023-04-12T07:44:15.119Z,21.26
2023-04-12T07:46:48.260Z,21.26
2023-04-12T07:49:21.222Z,21.26
2023-04-12T07:51:53.925Z,21.25
2023-04-12T07:54:27.102Z,21.25
2023-04-12T07:57:00.111Z,21.25
2023-04-12T07:59:36.292Z,21.25
2023-04-12T08:02:09.077Z,21.25
2023-04-12T08:04:42.078Z,21.26
2023-04-12T08:07:15.149Z,21.26
2023-04-12T08:09:48.081Z,21.26
2023-04-12T08:12:21.048Z,21.26
2023-04-12T08:14:53.984Z,21.26
2023-04-12T08:17:27.179Z,21.26
2023-04-12T08:20:00.070Z,21.26
2023-04-12T08:22:33.373Z,21.25
2023-04-12T08:25:06.276Z,21.25
2023-04-12T08:27:39.133Z,21.25
2023-04-12T08:30:12.009Z,21.25
2023-04-12T08:32:45.192Z,21.25
2023-04-12T08:35:18.089Z,21.26
2023-04-12T08:37:51.003Z,21.27
2023-04-12T08:40:24.327Z,21.27
2023-04-12T08:42:57.015Z,21.28
2023-04-12T08:45:30.181Z,21.29
2023-04-12T08:48:03.355Z,21.30
2023-04-12T08:50:36.172Z,21.31
2023-04-12T08:53:13.005Z,21.32
2023-04-12T08:55:46.174Z,21.34
2023-04-12T08:58:19.218Z,21.35
2023-04-12T09:00:52.090Z,21.36
2023-04-12T09:03:25.516Z,21.37
2023-04-12T09:05:58.059Z,21.38
2023-04-12T09:08:31.225Z,21.40
2023-04-12T09:11:04.077Z,21.41
2023-04-12T09:13:40.175Z,21.42
2023-04-12T09:16:13.441Z,21.43
2023-04-12T09:18:46.380Z,21.44
2023-04-12T09:21:19.436Z,21.45
2023-04-12T09:23:52.099Z,21.46
2023-04-12T09:26:25.089Z,21.46
2023-04-12T09:28:58.078Z,21.46
2023-04-12T09:31:31.265Z,21.46
2023-04-12T09:34:04.118Z,21.46
2023-04-12T09:36:37.292Z,21.46
2023-04-12T09:39:10.087Z,21.47
2023-04-12T09:41:43.100Z,21.47
2023-04-12T09:44:30.406Z,21.47
2023-04-12T09:47:03.113Z,21.46
2023-04-12T09:49:36.651Z,21.46
2023-04-12T09:52:10.114Z,21.45
2023-04-12T09:54:43.148Z,21.45
2023-04-12T09:57:16.110Z,21.44
2023-04-12T09:59:49.486Z,21.44
2023-04-12T10:02:22.436Z,21.43
2023-04-12T10:04:55.378Z,21.43
2023-04-12T10:07:28.137Z,21.43
2023-04-12T10:10:01.253Z,21.43
2023-04-12T10:12:34.329Z,21.43
2023-04-12T10:15:07.412Z,21.44
2023-04-12T10:17:40.332Z,21.44
2023-04-12T10:20:13.724Z,21.44
2023-04-12T10:22:47.261Z,21.45
2023-04-12T10:25:20.528Z,21.46
2023-04-12T10:28:07.458Z,21.46
2023-04-12T10:30:40.469Z,21.47
2023-04-12T10:33:13.423Z,21.48
2023-04-12T10:35:46.482Z,21.49
2023-04-12T10:38:19.557Z,21.50
2023-04-12T10:40:53.480Z,21.51
2023-04-12T10:43:26.599Z,21.53
2023-04-12T10:45:59.215Z,21.54
2023-04-12T10:48:32.810Z,21.56
2023-04-12T10:51:06.499Z,21.57
2023-04-12T10:53:39.547Z,21.59
2023-04-12T10:56:12.545Z,21.60
2023-04-12T10:58:45.471Z,21.61
2023-04-12T11:01:19.041Z,21.62
2023-04-12T11:03:52.428Z,21.63
2023-04-12T11:06:27.775Z,21.64
2023-04-12T11:08:58.463Z,21.65
2023-04-12T11:11:31.380Z,21.66
2023-04-12T11:14:04.320Z,21.67
2023-04-12T11:16:37.432Z,21.68
2023-04-12T11:19:10.264Z,21.68
2023-04-12T11:21:43.595Z,21.69
2023-04-12T11:26:50.546Z,21.68
2023-04-12T11:29:23.478Z,21.66
2023-04-12T11:31:56.385Z,21.62
2023-04-12T11:34:29.404Z,21.57
2023-04-12T11:37:02.402Z,21.52
2023-04-12T11:39:35.482Z,21.48
2023-04-12T11:42:08.317Z,21.45
2023-04-12T11:44:56.055Z,21.43
2023-04-12T11:47:14.682Z,21.43
2023-04-12T11:49:47.629Z,21.43
2023-04-12T11:52:20.815Z,21.44
2023-04-12T11:54:54.533Z,21.44
2023-04-12T11:57:27.401Z,21.45
2023-04-12T12:00:00.566Z,21.46
2023-04-12T12:02:40.701Z,21.47
2023-04-12T12:05:06.927Z,21.48
2023-04-12T12:07:39.572Z,21.49
2023-04-12T12:10:16.418Z,21.50
2023-04-12T12:12:45.445Z,21.51
2023-04-12T12:15:18.332Z,21.52
2023-04-12T12:17:54.272Z,21.53
2023-04-12T12:20:27.595Z,21.54
2023-04-12T12:23:00.580Z,21.56
2023-04-12T12:25:33.446Z,21.57
2023-04-12T12:28:06.353Z,21.58
2023-04-12T12:30:39.349Z,21.58
2023-04-12T12:33:12.655Z,21.59
2023-04-12T12:35:45.667Z,21.60
2023-04-12T12:38:18.384Z,21.61
2023-04-12T12:40:51.364Z,21.62
2023-04-12T12:43:24.561Z,21.62
2023-04-12T12:45:57.618Z,21.63
2023-04-12T12:48:30.458Z,21.64
2023-04-12T12:51:03.394Z,21.65
2023-04-12T12:53:36.795Z,21.66
2023-04-12T12:56:09.368Z,21.66
2023-04-12T12:58:42.731Z,21.67
2023-04-12T13:01:15.536Z,21.67
2023-04-12T13:03:48.561Z,21.68
2023-04-12T13:06:21.799Z,21.68
2023-04-12T13:08:54.747Z,21.69
2023-04-12T13:11:27.551Z,21.69
2023-04-12T13:14:00.425Z,21.69
2023-04-12T13:16:33.728Z,21.70
2023-04-12T13:19:06.441Z,21.70
2023-04-12T13:21:39.539Z,21.70
2023-04-12T13:24:12.535Z,21.71
2023-04-12T13:26:45.692Z,21.71
2023-04-12T13:29:18.622Z,21.71
2023-04-12T13:31:51.505Z,21.71
2023-04-12T13:34:24.890Z,21.71
2023-04-12T13:36:58.787Z,21.71
2023-04-12T13:39:33.150Z,21.71
2023-04-12T13:42:04.778Z,21.71
2023-04-12T13:44:37.785Z,21.71
2023-04-12T13:47:10.662Z,21.72
2023-04-12T13:49:43.835Z,21.72
2023-04-12T13:54:59.821Z,21.73
2023-04-12T13:57:32.602Z,21.74
2023-04-12T14:00:05.608Z,21.74
2023-04-12T14:02:52.914Z,21.75
2023-04-12T14:05:25.880Z,21.76
2023-04-12T14:07:58.776Z,21.77
2023-04-12T14:10:32.029Z,21.78
2023-04-12T14:13:05.894Z,21.79
2023-04-12T14:15:38.651Z,21.80
2023-04-12T14:18:11.888Z,21.81
2023-04-12T14:20:44.916Z,21.82
2023-04-12T14:23:17.800Z,21.83
2023-04-12T14:25:50.864Z,21.84
2023-04-12T14:28:23.985Z,21.84
2023-04-12T14:30:57.806Z,21.85
2023-04-12T14:33:30.912Z,21.85
2023-04-12T14:36:03.979Z,21.85
2023-04-12T14:38:37.813Z,21.86
2023-04-12T14:41:10.956Z,21.86
2023-04-12T14:43:43.891Z,21.86
2023-04-12T14:46:16.942Z,21.86
2023-04-12T14:48:50.006Z,21.86
2023-04-12T14:51:23.645Z,21.86
2023-04-12T14:53:57.520Z,21.87
2023-04-12T14:56:31.275Z,21.86
2023-04-12T14:59:02.564Z,21.86
2023-04-12T15:01:35.792Z,21.86
2023-04-12T15:04:08.970Z,21.86
2023-04-12T15:06:42.022Z,21.86
2023-04-12T15:09:15.747Z,21.86
2023-04-12T15:11:48.783Z,21.86
2023-04-12T15:14:21.860Z,21.86
2023-04-12T15:16:54.855Z,21.85
2023-04-12T15:19:27.861Z,21.85
2023-04-12T15:22:00.613Z,21.85
2023-04-12T15:27:23.761Z,21.84
2023-04-12T15:29:56.606Z,21.84
2023-04-12T15:32:29.765Z,21.83
2023-04-12T15:35:04.602Z,21.81
2023-04-12T15:37:35.908Z,21.80
2023-04-12T15:40:08.626Z,21.81
2023-04-12T15:42:55.569Z,21.81
2023-04-12T15:45:28.957Z,21.81
2023-04-12T15:48:01.889Z,21.79
2023-04-12T15:50:34.780Z,21.78
2023-04-12T15:53:07.687Z,21.78
2023-04-12T15:55:40.961Z,21.77
2023-04-12T15:58:13.845Z,21.78
2023-04-12T16:00:46.786Z,21.80
2023-04-12T16:03:20.062Z,21.82
2023-04-12T16:05:52.678Z,21.83
2023-04-12T16:08:25.760Z,21.83
2023-04-12T16:11:12.759Z,21.84
2023-04-12T16:13:46.141Z,21.86
2023-04-12T16:16:18.730Z,21.89
2023-04-12T16:18:51.800Z,21.92
2023-04-12T16:21:24.986Z,21.95
2023-04-12T16:23:57.688Z,21.98
2023-04-12T16:26:30.774Z,22.00
2023-04-12T16:29:03.778Z,22.03
2023-04-12T16:31:36.979Z,22.05
2023-04-12T16:34:09.713Z,22.07
2023-04-12T16:36:42.722Z,22.09
2023-04-12T16:39:16.039Z,22.11
2023-04-12T16:41:48.719Z,22.13
2023-04-12T16:44:22.295Z,22.15
2023-04-12T16:46:56.129Z,22.17
2023-04-12T16:49:29.013Z,22.17
2023-04-12T16:52:02.050Z,22.17
2023-04-12T16:54:34.984Z,22.16
2023-04-12T16:57:07.838Z,22.15
2023-04-12T16:59:41.090Z,22.14
2023-04-12T17:02:14.172Z,22.13
2023-04-12T17:04:46.906Z,22.12
2023-04-12T17:07:19.737Z,22.11
2023-04-12T17:09:52.995Z,22.11
2023-04-12T17:12:26.026Z,22.11
2023-04-12T17:14:58.762Z,22.10
2023-04-12T17:17:31.906Z,22.10
2023-04-12T17:20:04.830Z,22.10
2023-04-12T17:22:37.889Z,22.09
2023-04-12T17:25:10.929Z,22.09
2023-04-12T17:27:44.052Z,22.08
2023-04-12T17:30:16.827Z,22.08
2023-04-12T17:32:49.972Z,22.07
2023-04-12T17:35:22.789Z,22.05
2023-04-12T17:37:55.793Z,22.04
2023-04-12T17:40:28.865Z,22.03
2023-04-12T17:43:01.957Z,22.01
2023-04-12T17:45:35.152Z,22.00
2023-04-12T17:48:08.245Z,21.98
2023-04-12T17:50:40.896Z,21.96
2023-04-12T17:53:13.936Z,21.95
2023-04-12T17:55:48.391Z,21.94
2023-04-12T17:58:19.997Z,21.93
2023-04-12T18:00:53.076Z,21.92
2023-04-12T18:03:26.027Z,21.91
2023-04-12T18:05:58.891Z,21.90
2023-04-12T18:08:32.057Z,21.88
2023-04-12T18:11:04.842Z,21.87
2023-04-12T18:13:38.127Z,21.86
2023-04-12T18:16:10.968Z,21.84
2023-04-12T18:18:43.955Z,21.83
2023-04-12T18:21:16.960Z,21.82
2023-04-12T18:23:50.222Z,21.81
2023-04-12T18:26:22.861Z,21.80
2023-04-12T18:28:56.038Z,21.79
2023-04-12T18:31:29.154Z,21.77
2023-04-12T18:34:01.914Z,21.76
2023-04-12T18:36:35.024Z,21.75
2023-04-12T18:39:07.907Z,21.74
2023-04-12T18:41:40.900Z,21.73
2023-04-12T18:44:14.223Z,21.72
2023-04-12T18:46:47.177Z,21.71
2023-04-12T18:49:23.943Z,21.70
2023-04-12T18:51:56.911Z,21.69
2023-04-12T18:54:30.069Z,21.69
2023-04-12T18:57:02.931Z,21.69
2023-04-12T18:59:36.237Z,21.69
2023-04-12T19:02:09.026Z,21.69
2023-04-12T19:04:42.262Z,21.70
2023-04-12T19:07:28.984Z,21.71
2023-04-12T19:10:01.929Z,21.71
2023-04-12T19:12:35.233Z,21.72
2023-04-12T19:15:08.183Z,21.73
2023-04-12T19:17:41.276Z,21.74
2023-04-12T19:20:14.072Z,21.75
2023-04-12T19:22:47.088Z,21.76
2023-04-12T19:25:20.131Z,21.77
2023-04-12T19:27:55.870Z,21.78
2023-04-12T19:30:29.284Z,21.78
2023-04-12T19:33:02.090Z,21.79
2023-04-12T19:35:35.108Z,21.80
2023-04-12T19:38:22.071Z,21.81
2023-04-12T19:40:57.998Z,21.82
2023-04-12T19:43:31.401Z,21.82
2023-04-12T19:46:04.993Z,21.83
2023-04-12T19:48:38.091Z,21.84
2023-04-12T19:51:11.446Z,21.84
2023-04-12T19:53:45.340Z,21.85
2023-04-12T19:56:18.354Z,21.85
2023-04-12T19:58:51.166Z,21.86
2023-04-12T20:01:24.165Z,21.86
2023-04-12T20:03:57.366Z,21.87
2023-04-12T20:06:30.096Z,21.87
2023-04-12T20:09:03.281Z,21.88
2023-04-12T20:11:36.110Z,21.88
2023-04-12T20:14:09.144Z,21.89
2023-04-12T20:16:42.166Z,21.90
2023-04-12T20:19:15.171Z,21.90
2023-04-12T20:21:48.325Z,21.91
2023-04-12T20:24:21.182Z,21.91
2023-04-12T20:27:08.117Z,21.91
2023-04-12T20:29:41.189Z,21.91
2023-04-12T20:32:14.180Z,21.91
2023-04-12T20:34:47.166Z,21.92
2023-04-12T20:37:20.161Z,21.92
2023-04-12T20:39:53.560Z,21.92
2023-04-12T20:42:27.200Z,21.93
2023-04-12T20:45:00.058Z,21.93
2023-04-12T20:47:33.227Z,21.93
2023-04-12T20:50:09.205Z,21.94
2023-04-12T20:52:42.225Z,21.94
2023-04-12T20:55:15.282Z,21.94
2023-04-12T20:57:49.270Z,21.94
2023-04-12T21:00:22.596Z,21.94
2023-04-12T21:02:56.170Z,21.94
2023-04-12T21:05:29.494Z,21.94
2023-04-12T21:08:02.179Z,21.94
2023-04-12T21:10:35.335Z,21.95
2023-04-12T21:13:08.283Z,21.95
2023-04-12T21:15:46.202Z,21.95
2023-04-12T21:18:24.530Z,21.95
2023-04-12T21:20:57.904Z,21.95
2023-04-12T21:23:31.268Z,21.95
2023-04-12T21:26:04.255Z,21.95
2023-04-12T21:28:37.272Z,21.95
2023-04-12T21:31:10.351Z,21.95
2023-04-12T21:33:43.653Z,21.94
2023-04-12T21:36:17.262Z,21.94
2023-04-12T21:38:50.544Z,21.94
2023-04-12T21:41:23.570Z,21.94
2023-04-12T21:43:57.418Z,21.93
2023-04-12T21:46:30.285Z,21.93
2023-04-12T21:49:03.471Z,21.92
2023-04-12T21:51:36.504Z,21.92
2023-04-12T21:54:09.441Z,21.91
2023-04-12T21:56:42.425Z,21.90
2023-04-12T21:59:15.330Z,21.89
2023-04-12T22:01:48.459Z,21.88
2023-04-12T22:04:21.612Z,21.87
2023-04-12T22:06:55.420Z,21.86
2023-04-12T22:09:28.543Z,21.85
2023-04-12T22:12:01.176Z,21.84
2023-04-12T22:14:34.324Z,21.83
2023-04-12T22:17:07.518Z,21.82
2023-04-12T22:19:40.358Z,21.81
2023-04-12T22:22:13.325Z,21.80
2023-04-12T22:24:46.384Z,21.79
2023-04-12T22:27:19.580Z,21.78
2023-04-12T22:29:52.595Z,21.77
2023-04-12T22:32:25.806Z,21.77
2023-04-12T22:35:08.337Z,21.76
2023-04-12T22:37:32.362Z,21.75
2023-04-12T22:40:05.624Z,21.74
2023-04-12T22:42:44.443Z,21.73
2023-04-12T22:45:17.606Z,21.72
2023-04-12T22:47:50.678Z,21.71
2023-04-12T22:50:23.552Z,21.71
2023-04-12T22:52:56.278Z,21.70
2023-04-12T22:55:29.494Z,21.69
2023-04-12T22:58:02.510Z,21.68
2023-04-12T23:00:35.368Z,21.67
2023-04-12T23:03:08.901Z,21.67
2023-04-12T23:05:42.257Z,21.66
2023-04-12T23:08:15.631Z,21.65
2023-04-12T23:10:48.302Z,21.65
2023-04-12T23:13:21.464Z,21.64
2023-04-12T23:15:54.412Z,21.63
2023-04-12T23:18:27.697Z,21.63
2023-04-12T23:21:00.261Z,21.62
2023-04-12T23:23:33.569Z,21.61
2023-04-12T23:26:06.611Z,21.60
2023-04-12T23:28:39.595Z,21.60
2023-04-12T23:31:12.638Z,21.59
2023-04-12T23:33:45.584Z,21.59
2023-04-12T23:36:18.485Z,21.58
2023-04-12T23:38:51.772Z,21.57
2023-04-12T23:41:24.641Z,21.57
2023-04-12T23:43:57.589Z,21.56
2023-04-12T23:46:30.853Z,21.55
2023-04-12T23:49:04.670Z,21.55
2023-04-12T23:51:37.614Z,21.54
2023-04-12T23:54:10.420Z,21.53
2023-04-12T23:56:43.635Z,21.53
2023-04-12T23:59:16.718Z,21.52
